Terminal Aerodrome Forecast
Issued by NWS Cleveland, OH

Home | Current Version | Previous Version | Text Only | Print | Product List | Glossary On
Versions: 1 2 3 4 5 6 7 8 9 10 11 12 13 14 15 16 17 18 19 20 21 22 23 24 25 26 27
000
FTUS41 KCLE 291514 AAB
TAFCLE
TAF AMD
KCLE 291514Z 2915/3018 33007KT P6SM BKN015 OVC060
     FM291700 08012KT P6SM VCSH OVC015
     FM292200 06015G25KT 4SM -RA BR OVC007
     FM300500 08012KT 5SM -RA BR OVC007=

USA.gov is the U.S. government's official web portal to all federal, state and local government web resources and services.